createdAt,value
2018-03-31T00:01:49.803Z,5.00
2018-03-31T00:04:17.536Z,4.13
2018-03-31T00:06:45.271Z,5.47
2018-03-31T00:09:12.987Z,4.60
2018-03-31T00:11:41.187Z,4.70
2018-03-31T00:14:08.913Z,5.20
2018-03-31T00:16:36.643Z,4.13
2018-03-31T00:19:04.358Z,4.20
2018-03-31T00:21:32.086Z,4.53
2018-03-31T00:23:59.823Z,4.80
2018-03-31T00:26:27.555Z,4.63
2018-03-31T00:28:55.276Z,4.00
2018-03-31T00:31:23.157Z,5.87
2018-03-31T00:33:50.892Z,5.70
2018-03-31T00:36:18.603Z,6.13
2018-03-31T00:38:46.338Z,7.13
2018-03-31T00:41:14.064Z,5.90
2018-03-31T00:43:41.803Z,7.63
2018-03-31T00:46:09.518Z,6.23
2018-03-31T00:48:37.244Z,6.00
2018-03-31T00:51:04.967Z,6.30
2018-03-31T00:53:32.936Z,6.70
2018-03-31T00:56:07.955Z,7.07
2018-03-31T00:58:35.679Z,6.87
2018-03-31T01:01:04.327Z,7.57
2018-03-31T01:03:32.079Z,7.20
2018-03-31T01:05:59.792Z,9.17
2018-03-31T01:08:27.525Z,8.77
2018-03-31T01:10:55.255Z,12.10
2018-03-31T01:13:23.004Z,13.10
2018-03-31T01:15:50.740Z,12.07
2018-03-31T01:18:18.539Z,11.17
2018-03-31T01:20:46.260Z,8.43
2018-03-31T01:23:13.995Z,10.33
2018-03-31T01:25:41.731Z,7.50
2018-03-31T01:28:09.464Z,7.13
2018-03-31T01:30:37.196Z,6.90
2018-03-31T01:33:04.919Z,6.53
2018-03-31T01:35:32.652Z,6.47
2018-03-31T01:38:00.396Z,9.03
2018-03-31T01:40:28.137Z,7.40
2018-03-31T01:42:55.871Z,5.97
2018-03-31T01:45:23.639Z,6.63
2018-03-31T01:47:51.355Z,6.10
2018-03-31T01:50:19.087Z,8.10
2018-03-31T01:52:46.826Z,6.20
2018-03-31T01:55:14.594Z,6.93
2018-03-31T01:57:42.324Z,7.13
2018-03-31T02:00:10.057Z,6.63
2018-03-31T02:02:37.771Z,6.70
2018-03-31T02:05:05.499Z,5.97
2018-03-31T02:07:33.224Z,6.33
2018-03-31T02:10:00.963Z,6.97
2018-03-31T02:12:28.688Z,5.73
2018-03-31T02:14:56.411Z,7.53
2018-03-31T02:17:24.135Z,5.33
2018-03-31T02:19:51.859Z,7.43
2018-03-31T02:22:19.591Z,5.03
2018-03-31T02:24:47.311Z,5.50
2018-03-31T02:27:15.047Z,6.77
2018-03-31T02:29:42.767Z,6.87
2018-03-31T02:32:10.499Z,8.27
2018-03-31T02:34:38.228Z,7.00
2018-03-31T02:37:05.973Z,7.70
2018-03-31T02:39:33.700Z,7.73
2018-03-31T02:42:01.432Z,8.70
2018-03-31T02:44:29.177Z,7.70
2018-03-31T02:46:56.892Z,7.07
2018-03-31T02:49:35.328Z,7.37
2018-03-31T02:52:03.072Z,7.30
2018-03-31T02:54:30.788Z,8.50
2018-03-31T02:56:58.520Z,8.53
2018-03-31T02:59:26.247Z,5.40
2018-03-31T03:01:53.964Z,7.27
2018-03-31T03:04:21.699Z,6.70
2018-03-31T03:06:49.423Z,9.90
2018-03-31T03:09:17.164Z,11.37
2018-03-31T03:11:44.905Z,8.93
2018-03-31T03:14:12.646Z,10.07
2018-03-31T03:16:40.096Z,11.70
2018-03-31T03:19:07.551Z,8.67
2018-03-31T03:21:34.999Z,7.93
2018-03-31T03:24:02.453Z,7.23
2018-03-31T03:26:29.895Z,7.50
2018-03-31T03:28:57.395Z,7.57
2018-03-31T03:31:24.829Z,7.37
2018-03-31T03:33:52.328Z,7.57
2018-03-31T03:36:19.772Z,9.97
2018-03-31T03:38:47.231Z,14.37
2018-03-31T03:41:14.688Z,17.27
2018-03-31T03:43:42.144Z,15.27
2018-03-31T03:46:09.596Z,13.40
2018-03-31T03:48:37.072Z,14.47
2018-03-31T03:51:04.529Z,13.40
2018-03-31T03:53:31.975Z,11.07
2018-03-31T03:55:59.443Z,10.70
2018-03-31T03:58:26.901Z,11.00
2018-03-31T04:00:54.361Z,9.20
2018-03-31T04:03:21.804Z,10.10
2018-03-31T04:05:49.261Z,8.60
2018-03-31T04:08:16.712Z,9.07
2018-03-31T04:10:44.159Z,9.40
2018-03-31T04:13:11.633Z,9.07
2018-03-31T04:15:39.068Z,14.40
2018-03-31T04:18:06.547Z,13.37
2018-03-31T04:20:34.007Z,10.47
2018-03-31T04:23:01.451Z,10.67
2018-03-31T04:25:28.912Z,9.23
2018-03-31T04:27:56.363Z,9.33
2018-03-31T04:30:23.844Z,10.40
2018-03-31T04:32:51.290Z,9.37
2018-03-31T04:35:18.770Z,11.03
2018-03-31T04:37:46.229Z,9.10
2018-03-31T04:40:13.670Z,10.40
2018-03-31T04:42:41.128Z,12.13
2018-03-31T04:45:08.576Z,13.73
2018-03-31T04:47:36.032Z,12.47
2018-03-31T04:50:03.486Z,11.37
2018-03-31T04:52:30.947Z,12.47
2018-03-31T04:54:58.413Z,12.20
2018-03-31T04:57:25.860Z,12.80
2018-03-31T04:59:53.427Z,12.80
2018-03-31T05:02:20.886Z,12.43
2018-03-31T05:04:48.338Z,16.40
2018-03-31T05:07:15.792Z,15.03
2018-03-31T05:09:43.263Z,10.43
2018-03-31T05:12:10.719Z,13.37
2018-03-31T05:14:38.163Z,14.10
2018-03-31T05:17:05.624Z,14.93
2018-03-31T05:19:33.080Z,11.73
2018-03-31T05:22:00.543Z,9.80
2018-03-31T05:24:27.992Z,10.17
2018-03-31T05:26:55.452Z,10.27
2018-03-31T05:29:22.915Z,12.47
2018-03-31T05:31:50.364Z,10.07
2018-03-31T05:34:17.829Z,12.80
2018-03-31T05:36:45.280Z,13.87
2018-03-31T05:39:12.743Z,10.87
2018-03-31T05:41:40.577Z,13.00
2018-03-31T05:44:08.003Z,14.73
2018-03-31T05:46:35.461Z,13.77
2018-03-31T05:49:02.916Z,14.10
2018-03-31T05:51:30.368Z,13.10
2018-03-31T05:53:57.819Z,8.23
2018-03-31T05:56:25.265Z,15.80
2018-03-31T05:58:52.752Z,12.80
2018-03-31T06:01:20.196Z,12.23
2018-03-31T06:03:47.656Z,10.80
2018-03-31T06:06:15.099Z,8.30
2018-03-31T06:08:42.556Z,9.13
2018-03-31T06:11:10.007Z,11.27
2018-03-31T06:13:37.539Z,14.43
2018-03-31T06:16:04.993Z,11.83
2018-03-31T06:18:32.527Z,8.33
2018-03-31T06:21:00.001Z,15.27
2018-03-31T06:23:27.462Z,11.10
2018-03-31T06:25:54.915Z,13.23
2018-03-31T06:28:22.363Z,12.70
2018-03-31T06:30:49.823Z,14.30
2018-03-31T06:33:17.275Z,12.97
2018-03-31T06:35:44.735Z,10.67
2018-03-31T06:38:12.184Z,8.13
2018-03-31T06:40:39.647Z,10.40
2018-03-31T06:43:07.111Z,10.17
2018-03-31T06:45:34.627Z,13.50
2018-03-31T06:48:02.075Z,12.73
2018-03-31T06:50:29.532Z,14.83
2018-03-31T06:52:56.983Z,13.83
2018-03-31T06:55:24.440Z,11.73
2018-03-31T06:57:51.883Z,12.93
2018-03-31T07:00:19.332Z,8.43
2018-03-31T07:02:46.842Z,11.00
2018-03-31T07:05:14.291Z,13.67
2018-03-31T07:07:41.748Z,15.10
2018-03-31T07:10:09.250Z,15.70
2018-03-31T07:12:36.651Z,16.43
2018-03-31T07:15:04.100Z,13.43
2018-03-31T07:17:31.548Z,9.17
2018-03-31T07:19:59.025Z,11.53
2018-03-31T07:22:26.468Z,11.13
2018-03-31T07:24:53.916Z,9.50
2018-03-31T07:27:21.379Z,8.20
2018-03-31T07:29:48.825Z,7.47
2018-03-31T07:32:16.283Z,8.13
2018-03-31T07:34:43.739Z,8.53
2018-03-31T07:37:11.196Z,9.27
2018-03-31T07:39:38.643Z,9.07
2018-03-31T07:42:06.145Z,7.33
2018-03-31T07:44:33.587Z,8.27
2018-03-31T07:47:01.035Z,9.57
2018-03-31T07:49:28.499Z,8.67
2018-03-31T07:51:55.947Z,9.83
2018-03-31T07:54:23.408Z,9.13
2018-03-31T07:56:50.855Z,8.63
2018-03-31T07:59:18.315Z,7.70
2018-03-31T08:01:45.767Z,9.00
2018-03-31T08:04:13.223Z,7.67
2018-03-31T08:06:40.672Z,7.00
2018-03-31T08:09:08.142Z,6.83
2018-03-31T08:11:35.588Z,6.70
2018-03-31T08:14:03.051Z,6.83
2018-03-31T08:16:30.505Z,6.10
2018-03-31T08:18:57.956Z,6.20
2018-03-31T08:21:25.407Z,5.80
2018-03-31T08:23:52.860Z,5.30
2018-03-31T08:26:20.303Z,5.37
2018-03-31T08:28:47.747Z,5.57
2018-03-31T08:31:15.192Z,5.83
2018-03-31T08:33:42.651Z,5.10
2018-03-31T08:36:10.096Z,5.80
2018-03-31T08:38:37.539Z,5.57
2018-03-31T08:41:05.006Z,5.40
2018-03-31T08:43:32.458Z,5.93
2018-03-31T08:45:59.910Z,5.50
2018-03-31T08:48:27.347Z,5.70
2018-03-31T08:50:54.812Z,5.50
2018-03-31T08:53:22.257Z,5.80
2018-03-31T08:55:49.723Z,5.47
2018-03-31T08:58:17.172Z,5.20
2018-03-31T09:00:46.032Z,5.90
2018-03-31T09:03:13.484Z,5.70
2018-03-31T09:05:40.943Z,4.87
2018-03-31T09:08:08.397Z,5.07
2018-03-31T09:10:35.851Z,5.20
2018-03-31T09:13:03.295Z,4.77
2018-03-31T09:15:30.764Z,4.67
2018-03-31T09:17:58.210Z,5.07
2018-03-31T09:20:25.669Z,4.97
2018-03-31T09:22:53.107Z,4.97
2018-03-31T09:25:20.559Z,4.37
2018-03-31T09:27:48.020Z,5.23
2018-03-31T09:30:15.471Z,3.90
2018-03-31T09:32:42.927Z,4.30
2018-03-31T09:35:34.008Z,3.60
2018-03-31T09:38:01.467Z,3.03
2018-03-31T09:40:28.915Z,2.90
2018-03-31T09:42:56.374Z,2.50
2018-03-31T09:45:23.824Z,2.37
2018-03-31T09:47:51.283Z,2.03
2018-03-31T09:50:18.729Z,1.97
2018-03-31T09:52:46.184Z,1.13
2018-03-31T09:55:13.739Z,1.10
2018-03-31T09:57:41.191Z,1.47
2018-03-31T10:00:08.633Z,1.20
2018-03-31T10:02:36.088Z,1.70
2018-03-31T10:05:03.530Z,2.27
2018-03-31T10:07:31.011Z,2.23
2018-03-31T10:09:58.451Z,2.50
2018-03-31T10:12:25.933Z,2.77
2018-03-31T10:14:53.443Z,2.30
2018-03-31T10:17:20.904Z,2.97
2018-03-31T10:19:48.356Z,2.60
2018-03-31T10:22:15.876Z,2.50
2018-03-31T10:24:43.333Z,2.60
2018-03-31T10:27:17.493Z,2.20
2018-03-31T10:29:44.959Z,2.30
2018-03-31T10:32:12.420Z,2.40
2018-03-31T10:34:39.876Z,2.73
2018-03-31T10:37:09.345Z,2.50
2018-03-31T10:39:36.802Z,2.40
2018-03-31T10:42:04.271Z,2.47
2018-03-31T10:44:31.723Z,2.50
2018-03-31T10:46:59.171Z,2.50
2018-03-31T10:49:26.634Z,2.17
2018-03-31T10:51:54.076Z,2.30
2018-03-31T10:54:21.532Z,1.63
2018-03-31T10:56:49.003Z,1.63
2018-03-31T10:59:17.568Z,1.53
2018-03-31T11:01:45.012Z,1.30
2018-03-31T11:04:12.848Z,0.90
2018-03-31T11:06:40.288Z,1.10
2018-03-31T11:09:07.736Z,1.33
2018-03-31T11:11:35.245Z,1.47
2018-03-31T11:14:02.692Z,1.20
2018-03-31T11:16:30.160Z,1.07
2018-03-31T11:18:58.143Z,1.20
2018-03-31T11:21:25.642Z,1.30
2018-03-31T11:23:54.081Z,1.40
2018-03-31T11:26:21.546Z,1.60
2018-03-31T11:28:48.988Z,1.27
2018-03-31T11:31:16.455Z,1.50
2018-03-31T11:33:43.908Z,1.60
2018-03-31T11:36:11.367Z,1.60
2018-03-31T11:38:38.815Z,1.73
2018-03-31T11:41:06.271Z,1.27
2018-03-31T11:43:33.728Z,1.43
2018-03-31T11:46:01.172Z,1.40
2018-03-31T11:48:28.608Z,1.30
2018-03-31T11:50:56.059Z,1.80
2018-03-31T11:53:23.532Z,1.57
2018-03-31T11:55:50.993Z,1.53
2018-03-31T11:58:18.425Z,1.63
2018-03-31T12:00:45.888Z,1.03
2018-03-31T12:03:13.368Z,1.47
2018-03-31T12:05:40.816Z,1.50
2018-03-31T12:08:08.268Z,1.43
2018-03-31T12:10:35.734Z,1.33
2018-03-31T12:13:03.196Z,0.93
2018-03-31T12:15:30.706Z,1.20
2018-03-31T12:17:58.136Z,1.40
2018-03-31T12:20:25.612Z,1.30
2018-03-31T12:22:53.068Z,1.43
2018-03-31T12:25:20.528Z,1.20
2018-03-31T12:27:47.984Z,1.30
2018-03-31T12:30:15.523Z,1.17
2018-03-31T12:32:45.336Z,1.30
2018-03-31T12:35:13.803Z,1.20
2018-03-31T12:37:41.381Z,1.30
2018-03-31T12:40:08.920Z,1.17
2018-03-31T12:42:36.398Z,2.23
2018-03-31T12:45:03.892Z,1.60
2018-03-31T12:47:31.336Z,2.10
2018-03-31T12:49:58.822Z,1.73
2018-03-31T12:52:26.372Z,1.63
2018-03-31T12:54:53.878Z,1.50
2018-03-31T12:57:21.323Z,1.70
2018-03-31T12:59:48.784Z,1.10
2018-03-31T13:02:16.232Z,1.87
2018-03-31T13:04:43.690Z,1.40
2018-03-31T13:07:11.131Z,1.77
2018-03-31T13:09:38.595Z,1.30
2018-03-31T13:12:06.037Z,1.97
2018-03-31T13:14:33.492Z,1.70
2018-03-31T13:17:00.935Z,1.77
2018-03-31T13:19:28.392Z,1.90
2018-03-31T13:21:55.839Z,2.23
2018-03-31T13:24:23.327Z,1.87
2018-03-31T13:26:50.767Z,2.77
2018-03-31T13:29:18.253Z,2.10
2018-03-31T13:31:45.681Z,2.43
2018-03-31T13:34:13.135Z,1.70
2018-03-31T13:36:40.628Z,1.80
2018-03-31T13:39:08.076Z,2.00
2018-03-31T13:41:35.527Z,2.03
2018-03-31T13:44:02.977Z,2.13
2018-03-31T13:46:30.436Z,2.10
2018-03-31T13:48:57.881Z,1.70
2018-03-31T13:51:25.337Z,2.07
2018-03-31T13:53:52.791Z,2.17
2018-03-31T13:56:20.297Z,1.83
2018-03-31T13:58:47.691Z,2.10
2018-03-31T14:01:15.158Z,2.07
2018-03-31T14:03:42.617Z,1.97
2018-03-31T14:06:10.080Z,2.07
2018-03-31T14:08:37.524Z,1.77
2018-03-31T14:11:04.976Z,1.73
2018-03-31T14:13:32.428Z,2.10
2018-03-31T14:15:59.888Z,1.70
2018-03-31T14:18:27.353Z,1.93
2018-03-31T14:20:54.835Z,1.67
2018-03-31T14:23:22.293Z,1.57
2018-03-31T14:25:49.744Z,1.60
2018-03-31T14:28:17.227Z,1.50
2018-03-31T14:30:44.681Z,1.67
2018-03-31T14:33:12.135Z,1.63
2018-03-31T14:35:39.586Z,1.77
2018-03-31T14:38:07.039Z,1.57
2018-03-31T14:40:34.485Z,1.70
2018-03-31T14:43:01.944Z,2.10
2018-03-31T14:45:29.413Z,1.73
2018-03-31T14:47:56.871Z,1.60
2018-03-31T14:50:24.314Z,1.20
2018-03-31T14:52:51.768Z,2.40
2018-03-31T14:55:19.256Z,2.90
2018-03-31T14:57:46.760Z,2.07
2018-03-31T15:00:14.216Z,2.47
2018-03-31T15:02:41.697Z,2.40
2018-03-31T15:05:09.148Z,2.17
2018-03-31T15:07:36.959Z,2.30
2018-03-31T15:10:04.405Z,1.80
2018-03-31T15:12:31.847Z,2.10
2018-03-31T15:14:59.303Z,2.10
2018-03-31T15:17:26.752Z,1.73
2018-03-31T15:19:54.204Z,2.07
2018-03-31T15:22:21.667Z,1.80
2018-03-31T15:24:49.123Z,2.00
2018-03-31T15:27:16.572Z,1.90
2018-03-31T15:29:44.024Z,2.13
2018-03-31T15:32:16.746Z,1.27
2018-03-31T15:34:45.110Z,1.47
2018-03-31T15:37:12.551Z,1.90
2018-03-31T15:39:40.001Z,1.97
2018-03-31T15:42:07.448Z,2.80
2018-03-31T15:44:34.912Z,2.77
2018-03-31T15:47:02.357Z,2.70
2018-03-31T15:49:30.709Z,1.97
2018-03-31T15:51:58.156Z,2.53
2018-03-31T15:54:25.633Z,2.40
2018-03-31T15:56:53.060Z,2.57
2018-03-31T15:59:20.534Z,2.53
2018-03-31T16:01:48.016Z,2.53
2018-03-31T16:04:15.428Z,2.03
2018-03-31T16:06:43.320Z,2.53
2018-03-31T16:09:10.756Z,2.67
2018-03-31T16:11:38.207Z,1.77
2018-03-31T16:14:05.648Z,2.33
2018-03-31T16:16:33.103Z,2.40
2018-03-31T16:19:00.549Z,2.47
2018-03-31T16:21:28.009Z,2.50
2018-03-31T16:23:55.460Z,2.67
2018-03-31T16:26:22.910Z,2.83
2018-03-31T16:28:51.304Z,2.47
2018-03-31T16:31:18.748Z,2.60
2018-03-31T16:33:46.208Z,2.20
2018-03-31T16:36:13.656Z,3.00
2018-03-31T16:38:41.104Z,2.43
2018-03-31T16:41:08.550Z,1.87
2018-03-31T16:43:36.013Z,2.80
2018-03-31T16:46:03.464Z,2.30
2018-03-31T16:48:33.827Z,2.47
2018-03-31T16:51:01.270Z,2.07
2018-03-31T16:53:28.728Z,2.50
2018-03-31T16:55:56.176Z,2.10
2018-03-31T16:58:23.631Z,1.83
2018-03-31T17:00:51.162Z,2.37
2018-03-31T17:03:18.599Z,1.90
2018-03-31T17:05:46.058Z,2.20
2018-03-31T17:08:13.495Z,2.20
2018-03-31T17:10:40.959Z,1.80
2018-03-31T17:13:08.443Z,2.40
2018-03-31T17:15:35.916Z,2.57
2018-03-31T17:18:03.367Z,2.13
2018-03-31T17:20:30.848Z,2.20
2018-03-31T17:22:58.354Z,3.60
2018-03-31T17:25:25.748Z,2.50
2018-03-31T17:27:53.208Z,2.20
2018-03-31T17:30:20.691Z,1.80
2018-03-31T17:32:48.112Z,1.97
2018-03-31T17:35:15.563Z,2.07
2018-03-31T17:37:43.024Z,1.60
2018-03-31T17:40:10.468Z,1.80
2018-03-31T17:42:37.937Z,2.20
2018-03-31T17:45:05.387Z,1.93
2018-03-31T17:47:32.844Z,2.00
2018-03-31T17:50:00.288Z,1.40
2018-03-31T17:52:29.398Z,1.80
2018-03-31T17:54:56.988Z,2.50
2018-03-31T17:57:24.431Z,1.70
2018-03-31T17:59:51.894Z,1.90
2018-03-31T18:02:19.407Z,2.03
2018-03-31T18:04:46.864Z,2.00
2018-03-31T18:07:14.310Z,1.47
2018-03-31T18:09:41.763Z,2.37
2018-03-31T18:12:09.213Z,2.20
2018-03-31T18:14:36.667Z,1.60
2018-03-31T18:17:04.152Z,1.97
2018-03-31T18:19:31.600Z,1.80
2018-03-31T18:21:59.048Z,2.20
2018-03-31T18:24:26.513Z,2.47
2018-03-31T18:26:53.956Z,2.53
2018-03-31T18:29:21.404Z,2.50
2018-03-31T18:31:48.864Z,2.40
2018-03-31T18:34:16.307Z,1.90
2018-03-31T18:36:43.764Z,2.73
2018-03-31T18:39:11.220Z,2.20
2018-03-31T18:41:38.667Z,2.87
2018-03-31T18:44:06.116Z,2.43
2018-03-31T18:46:33.575Z,2.23
2018-03-31T18:49:01.081Z,2.07
2018-03-31T18:51:28.543Z,2.40
2018-03-31T18:53:56.020Z,1.87
2018-03-31T18:56:23.479Z,1.93
2018-03-31T18:58:50.924Z,2.73
2018-03-31T19:01:18.371Z,2.50
2018-03-31T19:03:45.824Z,2.43
2018-03-31T19:06:13.280Z,2.40
2018-03-31T19:08:40.736Z,2.90
2018-03-31T19:11:08.184Z,2.47
2018-03-31T19:13:35.846Z,2.33
2018-03-31T19:16:03.288Z,2.73
2018-03-31T19:18:30.748Z,2.20
2018-03-31T19:20:58.201Z,2.00
2018-03-31T19:23:25.659Z,2.40
2018-03-31T19:25:53.103Z,2.30
2018-03-31T19:28:20.817Z,2.70
2018-03-31T19:30:50.047Z,2.10
2018-03-31T19:33:17.499Z,2.20
2018-03-31T19:35:50.572Z,3.33
2018-03-31T19:38:18.068Z,2.70
2018-03-31T19:40:45.524Z,3.50
2018-03-31T19:43:12.972Z,3.03
2018-03-31T19:45:40.431Z,3.13
2018-03-31T19:48:07.880Z,3.00
2018-03-31T19:50:35.374Z,3.40
2018-03-31T19:53:02.779Z,3.77
2018-03-31T19:55:30.240Z,3.73
2018-03-31T19:57:57.707Z,3.57
2018-03-31T20:00:25.172Z,3.60
2018-03-31T20:02:52.620Z,3.83
2018-03-31T20:05:20.063Z,3.63
2018-03-31T20:07:47.516Z,3.30
2018-03-31T20:10:14.994Z,2.40
2018-03-31T20:12:42.415Z,2.20
2018-03-31T20:15:09.863Z,2.67
2018-03-31T20:17:37.324Z,2.80
2018-03-31T20:20:04.772Z,2.47
2018-03-31T20:22:33.273Z,2.60
2018-03-31T20:25:00.727Z,2.40
2018-03-31T20:27:28.175Z,1.60
2018-03-31T20:29:55.628Z,1.97
2018-03-31T20:32:23.091Z,1.83
2018-03-31T20:34:50.544Z,1.80
2018-03-31T20:37:17.991Z,1.53
2018-03-31T20:39:45.459Z,2.03
2018-03-31T20:42:12.896Z,1.37
2018-03-31T20:44:40.354Z,1.63
2018-03-31T20:47:07.801Z,1.70
2018-03-31T20:49:35.259Z,1.43
2018-03-31T20:52:02.703Z,1.40
2018-03-31T20:54:30.165Z,1.37
2018-03-31T20:56:57.622Z,2.03
2018-03-31T20:59:25.075Z,1.60
2018-03-31T21:01:52.523Z,2.33
2018-03-31T21:04:19.963Z,2.40
2018-03-31T21:06:47.419Z,2.23
2018-03-31T21:09:14.864Z,2.13
2018-03-31T21:11:42.315Z,1.93
2018-03-31T21:14:09.768Z,1.90
2018-03-31T21:16:37.278Z,2.10
2018-03-31T21:19:04.666Z,1.93
2018-03-31T21:21:32.117Z,2.33
2018-03-31T21:23:59.565Z,1.77
2018-03-31T21:26:27.023Z,2.00
2018-03-31T21:28:54.493Z,1.80
2018-03-31T21:31:21.940Z,1.83
2018-03-31T21:33:49.396Z,1.40
2018-03-31T21:36:16.847Z,2.13
2018-03-31T21:38:44.303Z,1.70
2018-03-31T21:41:12.297Z,1.37
2018-03-31T21:43:39.750Z,1.80
2018-03-31T21:46:07.196Z,1.80
2018-03-31T21:48:34.660Z,1.60
2018-03-31T21:51:02.109Z,1.60
2018-03-31T21:53:29.568Z,1.80
2018-03-31T21:55:57.023Z,1.50
2018-03-31T21:58:24.777Z,1.73
2018-03-31T22:00:52.219Z,1.70
2018-03-31T22:03:19.667Z,1.27
2018-03-31T22:05:47.189Z,1.30
2018-03-31T22:08:14.609Z,1.50
2018-03-31T22:10:42.065Z,1.63
2018-03-31T22:13:15.052Z,1.83
2018-03-31T22:15:48.004Z,1.90
2018-03-31T22:18:15.448Z,1.73
2018-03-31T22:20:42.895Z,1.60
2018-03-31T22:23:10.339Z,1.43
2018-03-31T22:25:37.797Z,1.80
2018-03-31T22:28:05.244Z,1.90
2018-03-31T22:30:32.711Z,2.33
2018-03-31T22:33:00.163Z,2.03
2018-03-31T22:35:28.284Z,2.10
2018-03-31T22:37:55.749Z,2.13
2018-03-31T22:40:23.192Z,2.10
2018-03-31T22:42:50.657Z,1.63
2018-03-31T22:45:18.113Z,1.40
2018-03-31T22:47:45.575Z,2.43
2018-03-31T22:50:13.023Z,1.80
2018-03-31T22:52:40.484Z,1.70
2018-03-31T22:55:07.930Z,2.07
2018-03-31T22:57:35.632Z,1.80
2018-03-31T23:00:03.077Z,2.30
2018-03-31T23:02:30.528Z,2.40
2018-03-31T23:04:58.271Z,2.00
2018-03-31T23:07:26.000Z,2.53
2018-03-31T23:09:53.732Z,2.80
2018-03-31T23:12:21.494Z,1.77
2018-03-31T23:14:49.195Z,2.50
2018-03-31T23:17:16.915Z,1.97
2018-03-31T23:19:44.653Z,2.00
2018-03-31T23:22:12.375Z,2.07
2018-03-31T23:24:40.112Z,2.10
2018-03-31T23:27:07.842Z,2.07
2018-03-31T23:29:35.596Z,2.10
2018-03-31T23:32:03.324Z,2.33
2018-03-31T23:34:31.112Z,2.83
2018-03-31T23:36:58.792Z,1.50
2018-03-31T23:39:26.235Z,1.87
2018-03-31T23:41:53.692Z,2.50
2018-03-31T23:44:21.136Z,1.60
2018-03-31T23:46:48.601Z,2.13
2018-03-31T23:49:16.046Z,1.30
2018-03-31T23:51:43.512Z,2.07
2018-03-31T23:54:10.963Z,1.87
2018-03-31T23:56:38.419Z,2.67
2018-03-31T23:59:05.884Z,2.23
